Time;durP1;ratioP1;P1;durP2;ratioP2;P2;SDS_P1;SDS_P2;PMS_P1;PMS_P2;Temp;Humidity;BMP_temperature;BMP_pressure;BME280_temperature;BME280_humidity;BME280_pressure;Samples;Min_cycle;Max_cycle;Signal;HPM_P1;HPM_P2
2022/07/10 00:09:34;;;;;;;3.40;2.00;;;;;;;;;;21161819;28;20151;-59
2022/07/10 00:19:36;;;;;;;4.05;2.03;;;;;;;;;;21166698;28;20135;-60
2022/07/10 00:29:39;;;;;;;4.13;1.83;;;;;;;;;;21177269;28;20047;-58
2022/07/10 00:39:41;;;;;;;4.63;2.47;;;;;;;;;;21177730;28;20403;-61
2022/07/10 00:49:42;;;;;;;2.97;2.00;;;;;;;;;;21175988;28;20082;-60
2022/07/10 00:59:45;;;;;;;4.13;1.70;;;;;;;;;;21176014;28;20055;-60
2022/07/10 01:09:47;;;;;;;3.10;1.95;;;;;;;;;;21174042;28;20050;-60
2022/07/10 01:19:49;;;;;;;3.22;1.88;;;;;;;;;;21173049;28;20050;-58
2022/07/10 01:29:53;;;;;;;2.38;1.20;;;;;;;;;;21171561;28;20044;-58
2022/07/10 01:40:00;;;;;;;3.97;1.48;;;;;;;;;;21172694;28;20453;-59
2022/07/10 01:50:06;;;;;;;8.18;1.50;;;;;;;;;;21171293;28;20076;-59
2022/07/10 02:00:21;;;;;;;4.18;1.42;;;;;;;;;;21170039;28;20142;-60
2022/07/10 02:10:31;;;;;;;4.60;1.70;;;;;;;;;;21169250;28;20051;-59
2022/07/10 02:20:38;;;;;;;2.47;1.65;;;;;;;;;;21168221;28;20055;-59
2022/07/10 02:30:48;;;;;;;2.77;1.50;;;;;;;;;;21168789;28;20570;-60
2022/07/10 02:41:00;;;;;;;3.80;1.42;;;;;;;;;;21166717;28;20052;-59
2022/07/10 02:51:05;;;;;;;2.30;1.52;;;;;;;;;;21166224;28;20092;-59
2022/07/10 03:01:13;;;;;;;4.28;1.60;;;;;;;;;;21165327;28;20048;-59
2022/07/10 03:11:19;;;;;;;3.53;1.45;;;;;;;;;;21164187;28;20091;-59
2022/07/10 03:21:26;;;;;;;5.70;1.75;;;;;;;;;;21164106;28;20047;-58
2022/07/10 03:31:29;;;;;;;2.97;1.45;;;;;;;;;;21164571;28;20483;-58
2022/07/10 03:41:32;;;;;;;3.33;1.45;;;;;;;;;;21163901;28;20043;-59
2022/07/10 03:51:34;;;;;;;2.63;1.40;;;;;;;;;;21163389;28;20091;-59
2022/07/10 04:01:38;;;;;;;2.30;1.70;;;;;;;;;;21179830;28;20051;-59
2022/07/10 04:11:42;;;;;;;3.85;2.05;;;;;;;;;;21178568;28;20520;-60
2022/07/10 04:21:44;;;;;;;1.75;1.30;;;;;;;;;;21178091;28;20043;-59
2022/07/10 04:31:46;;;;;;;2.25;1.65;;;;;;;;;;21178530;28;20131;-59
2022/07/10 04:41:49;;;;;;;4.45;2.60;;;;;;;;;;21176619;28;20131;-56
2022/07/10 04:51:51;;;;;;;2.67;1.50;;;;;;;;;;21175368;28;20051;-58
2022/07/10 05:01:54;;;;;;;4.65;1.73;;;;;;;;;;21174657;28;20043;-58
2022/07/10 05:11:56;;;;;;;3.80;1.85;;;;;;;;;;21173717;28;20052;-60
2022/07/10 05:21:59;;;;;;;5.20;1.80;;;;;;;;;;21174492;28;20059;-58
2022/07/10 05:32:02;;;;;;;4.38;1.65;;;;;;;;;;21173786;28;20048;-59
2022/07/10 05:42:04;;;;;;;3.42;1.85;;;;;;;;;;21172918;28;20510;-59
2022/07/10 05:52:09;;;;;;;5.20;2.33;;;;;;;;;;21170623;28;20143;-57
2022/07/10 06:02:11;;;;;;;4.45;1.83;;;;;;;;;;21170080;28;20127;-58
2022/07/10 06:12:14;;;;;;;4.97;1.80;;;;;;;;;;21169029;28;20055;-61
2022/07/10 06:22:31;;;;;;;4.30;1.80;;;;;;;;;;21168069;28;20101;-58
2022/07/10 06:32:34;;;;;;;4.65;1.80;;;;;;;;;;21168353;28;20090;-59
2022/07/10 06:42:36;;;;;;;4.18;2.63;;;;;;;;;;21167997;28;20541;-58
2022/07/10 06:52:38;;;;;;;4.75;2.17;;;;;;;;;;21166332;28;20055;-58
2022/07/10 07:02:40;;;;;;;5.88;1.98;;;;;;;;;;21164979;28;20180;-60
2022/07/10 07:12:42;;;;;;;3.80;2.10;;;;;;;;;;21164210;28;20143;-58
2022/07/10 07:33:05;;;;;;;4.77;2.47;;;;;;;;;;21163051;28;20052;-58
2022/07/10 07:43:10;;;;;;;5.28;2.20;;;;;;;;;;21162772;28;20138;-59
2022/07/10 07:53:12;;;;;;;3.60;2.00;;;;;;;;;;21162139;28;20094;-59
2022/07/10 08:03:15;;;;;;;5.43;2.53;;;;;;;;;;21161789;28;20100;-59
2022/07/10 08:13:17;;;;;;;4.15;2.20;;;;;;;;;;21160915;28;20090;-57
2022/07/10 08:23:18;;;;;;;5.57;2.05;;;;;;;;;;21161427;28;20044;-57
2022/07/10 08:33:20;;;;;;;5.00;2.17;;;;;;;;;;21160990;28;20457;-58
2022/07/10 08:43:22;;;;;;;3.20;2.28;;;;;;;;;;21170226;28;20094;-59
2022/07/10 08:53:32;;;;;;;4.97;2.00;;;;;;;;;;21176146;28;20058;-60
2022/07/10 09:03:34;;;;;;;5.13;2.40;;;;;;;;;;21174968;28;20540;-59
2022/07/10 09:13:49;;;;;;;4.55;2.20;;;;;;;;;;21174274;28;20139;-59
2022/07/10 09:23:52;;;;;;;3.50;2.13;;;;;;;;;;21174248;28;20125;-59
2022/07/10 09:33:54;;;;;;;7.03;2.20;;;;;;;;;;21173304;28;20055;-59
2022/07/10 09:44:03;;;;;;;5.45;2.47;;;;;;;;;;21172944;28;20093;-57
2022/07/10 09:54:07;;;;;;;3.17;2.13;;;;;;;;;;21170166;28;20104;-61
2022/07/10 10:04:11;;;;;;;5.78;2.75;;;;;;;;;;21171395;28;20165;-59
2022/07/10 10:14:16;;;;;;;6.28;3.28;;;;;;;;;;21170434;28;20083;-59
2022/07/10 10:24:18;;;;;;;2.90;2.13;;;;;;;;;;21151567;28;20494;-59
2022/07/10 10:34:42;;;;;;;8.73;2.95;;;;;;;;;;21168616;28;20130;-58
2022/07/10 10:44:44;;;;;;;4.03;2.30;;;;;;;;;;21168142;28;20052;-58
2022/07/10 10:55:03;;;;;;;6.65;2.92;;;;;;;;;;21167455;28;20449;-60
2022/07/10 11:05:14;;;;;;;8.43;2.63;;;;;;;;;;21166038;28;20055;-59
2022/07/10 11:15:16;;;;;;;4.28;2.30;;;;;;;;;;21164416;28;20055;-60
2022/07/10 11:25:44;;;;;;;3.47;2.30;;;;;;;;;;21164070;28;20044;-58
2022/07/10 11:35:47;;;;;;;6.40;2.58;;;;;;;;;;21164592;28;20051;-60
2022/07/10 11:45:50;;;;;;;3.67;2.17;;;;;;;;;;21146010;28;20204;-57
2022/07/10 11:55:53;;;;;;;5.63;2.15;;;;;;;;;;21162402;28;20052;-60
2022/07/10 12:05:54;;;;;;;3.65;2.85;;;;;;;;;;21161421;28;20073;-59
2022/07/10 12:15:56;;;;;;;4.50;1.98;;;;;;;;;;21168980;28;20047;-59
2022/07/10 12:25:59;;;;;;;5.28;2.05;;;;;;;;;;21178937;28;20127;-59
2022/07/10 12:36:01;;;;;;;6.65;1.88;;;;;;;;;;21178362;28;20048;-59
2022/07/10 12:46:20;;;;;;;5.18;2.10;;;;;;;;;;21158625;28;20436;-58
2022/07/10 12:56:38;;;;;;;9.32;2.38;;;;;;;;;;21176265;28;20048;-60
2022/07/10 13:06:40;;;;;;;2.80;1.95;;;;;;;;;;21174910;28;20138;-61
2022/07/10 13:16:43;;;;;;;2.88;2.15;;;;;;;;;;21174124;28;20048;-59
2022/07/10 13:26:45;;;;;;;5.93;4.18;;;;;;;;;;21173204;28;20457;-59
2022/07/10 13:36:47;;;;;;;3.92;1.83;;;;;;;;;;21172693;28;20058;-59
2022/07/10 13:46:50;;;;;;;2.90;2.30;;;;;;;;;;21171736;28;20055;-58
2022/07/10 13:56:52;;;;;;;2.83;1.88;;;;;;;;;;21171248;28;20047;-60
2022/07/10 14:06:54;;;;;;;4.07;2.10;;;;;;;;;;21170414;28;20071;-59
2022/07/10 14:16:56;;;;;;;3.92;2.42;;;;;;;;;;21169497;28;20047;-59
2022/07/10 14:26:58;;;;;;;2.88;2.42;;;;;;;;;;21168640;28;20050;-60
2022/07/10 14:37:01;;;;;;;5.22;2.72;;;;;;;;;;21166968;28;20047;-59
2022/07/10 14:47:04;;;;;;;4.05;2.20;;;;;;;;;;21168987;28;20149;-59
2022/07/10 14:57:06;;;;;;;2.60;1.95;;;;;;;;;;21166634;28;20146;-60
2022/07/10 15:07:09;;;;;;;3.88;2.15;;;;;;;;;;21164534;28;20044;-59
2022/07/10 15:17:11;;;;;;;2.67;1.90;;;;;;;;;;21164596;28;20070;-59
2022/07/10 15:27:13;;;;;;;3.58;2.30;;;;;;;;;;21163756;28;20043;-61
2022/07/10 15:37:18;;;;;;;3.45;1.80;;;;;;;;;;21163990;28;20420;-60
2022/07/10 15:47:20;;;;;;;3.95;2.38;;;;;;;;;;21161417;28;20090;-59
2022/07/10 15:57:22;;;;;;;2.50;2.05;;;;;;;;;;21162654;28;20131;-60
2022/07/10 16:07:24;;;;;;;2.65;2.00;;;;;;;;;;21160866;28;20078;-59
2022/07/10 16:17:27;;;;;;;2.53;2.15;;;;;;;;;;21161004;28;20048;-58
2022/07/10 16:27:29;;;;;;;4.63;2.10;;;;;;;;;;21161258;28;20062;-58
2022/07/10 16:37:32;;;;;;;3.65;2.10;;;;;;;;;;21161122;28;20086;-59
2022/07/10 16:47:34;;;;;;;3.72;2.17;;;;;;;;;;21160537;28;20097;-60
2022/07/10 16:57:36;;;;;;;2.70;2.00;;;;;;;;;;21161006;28;20377;-60
2022/07/10 17:07:41;;;;;;;6.90;2.33;;;;;;;;;;21174188;28;20043;-59
2022/07/10 17:17:43;;;;;;;3.42;2.30;;;;;;;;;;21173990;28;20058;-59
2022/07/10 17:27:47;;;;;;;4.55;2.17;;;;;;;;;;21173073;28;20044;-58
2022/07/10 17:37:49;;;;;;;2.53;2.22;;;;;;;;;;21173420;28;20523;-59
2022/07/10 17:47:51;;;;;;;6.15;2.15;;;;;;;;;;21172191;28;20498;-59
2022/07/10 17:57:54;;;;;;;2.72;2.10;;;;;;;;;;21171110;28;20128;-58
2022/07/10 18:07:56;;;;;;;6.55;2.58;;;;;;;;;;21170896;28;20412;-59
2022/07/10 18:17:58;;;;;;;3.80;2.20;;;;;;;;;;21169272;28;20048;-59
2022/07/10 18:28:00;;;;;;;6.85;2.85;;;;;;;;;;21169564;28;20043;-58
2022/07/10 18:38:03;;;;;;;4.10;2.30;;;;;;;;;;21168107;28;20051;-59
2022/07/10 18:48:05;;;;;;;11.30;4.97;;;;;;;;;;21167126;28;20055;-59
2022/07/10 18:58:07;;;;;;;4.65;2.33;;;;;;;;;;21166778;28;20047;-62
2022/07/10 19:08:10;;;;;;;5.85;2.92;;;;;;;;;;21164284;28;20051;-60
2022/07/10 19:18:12;;;;;;;5.55;2.83;;;;;;;;;;21161542;28;20059;-59
2022/07/10 19:28:14;;;;;;;5.70;3.47;;;;;;;;;;21161294;28;20055;-59
2022/07/10 19:38:16;;;;;;;6.28;3.25;;;;;;;;;;21160390;28;20063;-60
2022/07/10 19:48:18;;;;;;;7.45;4.90;;;;;;;;;;21159954;28;20050;-59
2022/07/10 19:58:20;;;;;;;6.10;3.40;;;;;;;;;;21158377;28;20052;-59
2022/07/10 20:08:21;;;;;;;9.68;4.28;;;;;;;;;;21117057;28;1185679;-61
2022/07/10 20:18:24;;;;;;;8.48;6.30;;;;;;;;;;21161327;28;20097;-59
2022/07/10 20:28:26;;;;;;;4.93;3.85;;;;;;;;;;21161643;28;20048;-59
2022/07/10 20:38:28;;;;;;;3.95;3.25;;;;;;;;;;21168746;28;20176;-61
2022/07/10 20:48:30;;;;;;;6.57;4.30;;;;;;;;;;21176925;28;20060;-60
2022/07/10 20:58:32;;;;;;;5.10;3.28;;;;;;;;;;21175750;28;20135;-62
2022/07/10 21:08:34;;;;;;;5.68;3.47;;;;;;;;;;21175634;28;20407;-62
2022/07/10 21:18:36;;;;;;;4.35;3.30;;;;;;;;;;21175745;28;20380;-62
2022/07/10 21:28:39;;;;;;;4.93;3.25;;;;;;;;;;21173243;28;20054;-60
2022/07/10 21:38:41;;;;;;;5.93;3.63;;;;;;;;;;21173355;28;20047;-60
2022/07/10 21:48:43;;;;;;;6.68;3.95;;;;;;;;;;21172797;28;20044;-59
2022/07/10 21:58:47;;;;;;;7.30;6.25;;;;;;;;;;21172455;28;20515;-60
2022/07/10 22:08:48;;;;;;;4.68;3.63;;;;;;;;;;21171799;28;20052;-59
2022/07/10 22:18:50;;;;;;;8.35;6.15;;;;;;;;;;21170334;28;20051;-59
2022/07/10 22:28:52;;;;;;;6.22;3.58;;;;;;;;;;21169138;28;20059;-59
2022/07/10 22:38:54;;;;;;;7.43;3.70;;;;;;;;;;21167153;28;20400;-58
2022/07/10 22:48:57;;;;;;;4.13;3.38;;;;;;;;;;21167465;28;20188;-60
2022/07/10 22:58:59;;;;;;;5.88;3.58;;;;;;;;;;21165598;28;20055;-60
2022/07/10 23:09:01;;;;;;;9.13;3.70;;;;;;;;;;21165356;28;20184;-60
2022/07/10 23:19:03;;;;;;;7.80;3.90;;;;;;;;;;21164906;28;20052;-59
2022/07/10 23:29:05;;;;;;;5.82;3.67;;;;;;;;;;21165038;28;20484;-60
2022/07/10 23:39:07;;;;;;;6.70;3.00;;;;;;;;;;21162963;28;20051;-59
2022/07/10 23:59:29;;;;;;;5.65;2.25;;;;;;;;;;21163225;28;20132;-59
